createdAt,value
2022-10-17T00:00:43.438Z,6.10
2022-10-17T00:03:10.105Z,13.33
2022-10-17T00:05:43.803Z,9.63
2022-10-17T00:08:11.566Z,8.90
2022-10-17T00:10:38.425Z,13.47
2022-10-17T00:13:05.171Z,6.80
2022-10-17T00:15:32.108Z,9.67
2022-10-17T00:17:58.642Z,8.57
2022-10-17T00:20:25.458Z,6.63
2022-10-17T00:22:51.965Z,8.10
2022-10-17T00:25:18.375Z,9.93
2022-10-17T00:27:45.099Z,7.73
2022-10-17T00:30:14.958Z,7.80
2022-10-17T00:32:41.761Z,5.93
2022-10-17T00:35:08.842Z,5.57
2022-10-17T00:37:35.658Z,5.53
2022-10-17T00:40:02.153Z,12.17
2022-10-17T00:42:28.960Z,5.10
2022-10-17T00:45:07.740Z,5.63
2022-10-17T00:47:35.969Z,7.50
2022-10-17T00:50:03.354Z,10.03
2022-10-17T00:52:31.002Z,5.67
2022-10-17T00:55:03.199Z,5.97
2022-10-17T00:57:31.604Z,5.57
2022-10-17T00:59:59.413Z,5.20
2022-10-17T01:02:26.333Z,6.33
2022-10-17T01:04:55.101Z,8.00
2022-10-17T01:07:21.732Z,5.80
2022-10-17T01:09:49.850Z,10.80
2022-10-17T01:12:22.366Z,7.13
2022-10-17T01:15:07.773Z,5.00
2022-10-17T01:17:37.214Z,5.20
2022-10-17T01:20:18.827Z,5.00
2022-10-17T01:23:03.895Z,5.60
2022-10-17T01:25:30.461Z,7.20
2022-10-17T01:28:16.020Z,5.17
2022-10-17T01:30:45.602Z,5.60
2022-10-17T01:33:14.293Z,7.57
2022-10-17T01:35:55.490Z,5.30
2022-10-17T01:38:25.411Z,4.70
2022-10-17T01:41:02.133Z,5.10
2022-10-17T01:43:31.591Z,4.90
2022-10-17T01:46:00.736Z,6.60
2022-10-17T01:48:30.277Z,4.90
2022-10-17T01:51:10.927Z,6.77
2022-10-17T01:53:41.604Z,6.90
2022-10-17T01:56:09.322Z,7.87
2022-10-17T01:58:49.429Z,5.30
2022-10-17T02:01:18.664Z,6.27
2022-10-17T02:03:46.727Z,6.83
2022-10-17T02:06:13.217Z,5.40
2022-10-17T02:08:46.791Z,8.70
2022-10-17T02:11:18.325Z,8.07
2022-10-17T02:14:03.860Z,8.10
2022-10-17T02:16:42.698Z,7.00
2022-10-17T02:19:32.887Z,6.67
2022-10-17T02:22:16.452Z,9.73
2022-10-17T02:24:57.152Z,6.03
2022-10-17T02:27:36.278Z,6.47
2022-10-17T02:30:06.269Z,5.37
2022-10-17T02:32:32.731Z,5.97
2022-10-17T02:35:01.868Z,5.13
2022-10-17T02:37:30.193Z,8.10
2022-10-17T02:39:57.936Z,5.87
2022-10-17T02:42:25.302Z,5.20
2022-10-17T02:44:52.306Z,5.20
2022-10-17T02:47:42.232Z,5.27
2022-10-17T02:50:08.851Z,8.23
2022-10-17T02:52:45.124Z,5.63
2022-10-17T02:55:13.835Z,10.43
2022-10-17T02:57:54.712Z,4.90
2022-10-17T03:00:23.713Z,5.07
2022-10-17T03:02:51.214Z,5.23
2022-10-17T03:05:19.626Z,5.90
2022-10-17T03:07:46.187Z,8.30
2022-10-17T03:10:12.927Z,5.07
2022-10-17T03:12:39.462Z,6.67
2022-10-17T03:15:07.381Z,10.27
2022-10-17T03:17:34.218Z,6.00
2022-10-17T03:20:00.856Z,6.07
2022-10-17T03:22:29.532Z,7.13
2022-10-17T03:24:58.524Z,6.25
2022-10-17T03:27:25.319Z,6.80
2022-10-17T03:29:52.000Z,10.10
2022-10-17T03:32:19.797Z,9.07
2022-10-17T03:34:46.688Z,11.33
2022-10-17T03:37:13.422Z,8.03
2022-10-17T03:39:41.119Z,8.53
2022-10-17T03:42:07.831Z,7.57
2022-10-17T03:44:34.474Z,8.30
2022-10-17T03:47:00.955Z,8.17
2022-10-17T03:49:27.533Z,10.40
2022-10-17T03:51:54.169Z,10.10
2022-10-17T03:54:20.668Z,12.17
2022-10-17T03:56:47.202Z,12.00
2022-10-17T03:59:17.290Z,11.47
2022-10-17T04:01:51.007Z,13.77
2022-10-17T04:04:18.618Z,15.80
2022-10-17T04:06:45.071Z,12.93
2022-10-17T04:09:11.540Z,12.17
2022-10-17T04:11:58.479Z,12.33
2022-10-17T04:14:25.052Z,12.17
2022-10-17T04:16:51.569Z,14.13
2022-10-17T04:19:20.560Z,14.10
2022-10-17T04:21:47.437Z,14.73
2022-10-17T04:24:14.864Z,15.17
2022-10-17T04:26:44.208Z,16.87
2022-10-17T04:29:11.135Z,17.20
2022-10-17T04:31:38.849Z,15.57
2022-10-17T04:34:14.697Z,15.57
2022-10-17T04:36:41.236Z,15.80
2022-10-17T04:39:08.437Z,16.80
2022-10-17T04:41:35.817Z,16.83
2022-10-17T04:44:02.580Z,16.87
2022-10-17T04:46:33.466Z,18.20
2022-10-17T04:48:59.963Z,17.73
2022-10-17T04:51:27.121Z,17.70
2022-10-17T04:54:17.671Z,19.70
2022-10-17T04:56:48.609Z,19.27
2022-10-17T04:59:15.183Z,19.73
2022-10-17T05:01:43.830Z,22.00
2022-10-17T05:04:10.451Z,22.50
2022-10-17T05:06:37.754Z,27.53
2022-10-17T05:09:35.747Z,26.20
2022-10-17T05:12:04.284Z,29.03
2022-10-17T05:14:33.357Z,27.93
2022-10-17T05:17:00.453Z,26.30
2022-10-17T05:19:28.280Z,27.60
2022-10-17T05:21:54.849Z,26.07
2022-10-17T05:24:21.306Z,29.57
2022-10-17T05:26:49.999Z,25.47
2022-10-17T05:29:16.461Z,25.83
2022-10-17T05:31:47.889Z,27.23
2022-10-17T05:34:14.303Z,27.63
2022-10-17T05:36:41.852Z,25.07
2022-10-17T05:39:09.127Z,26.50
2022-10-17T05:41:37.024Z,28.50
2022-10-17T05:44:05.654Z,25.70
2022-10-17T05:46:41.276Z,26.60
2022-10-17T05:49:14.984Z,25.50
2022-10-17T05:51:56.367Z,29.63
2022-10-17T05:54:22.880Z,32.17
2022-10-17T05:56:53.380Z,28.17
2022-10-17T05:59:21.675Z,29.37
2022-10-17T06:02:00.014Z,33.57
2022-10-17T06:04:27.871Z,35.63
2022-10-17T06:06:56.274Z,36.03
2022-10-17T06:09:23.800Z,36.93
2022-10-17T06:11:52.918Z,33.13
2022-10-17T06:14:19.996Z,33.17
2022-10-17T06:16:48.949Z,33.83
2022-10-17T06:19:15.873Z,37.90
2022-10-17T06:21:42.588Z,37.63
2022-10-17T06:24:14.520Z,31.27
2022-10-17T06:26:42.284Z,37.50
2022-10-17T06:29:10.641Z,32.23
2022-10-17T06:31:43.206Z,38.13
2022-10-17T06:34:09.942Z,38.67
2022-10-17T06:36:38.189Z,37.60
2022-10-17T06:39:05.676Z,40.80
2022-10-17T06:41:37.531Z,36.70
2022-10-17T06:44:11.099Z,36.60
2022-10-17T06:46:56.336Z,36.97
2022-10-17T06:49:22.908Z,30.87
2022-10-17T06:51:58.981Z,35.47
2022-10-17T06:54:34.067Z,31.23
2022-10-17T06:57:20.772Z,34.10
2022-10-17T07:00:06.464Z,33.30
2022-10-17T07:02:40.172Z,36.80
2022-10-17T07:05:06.697Z,39.37
2022-10-17T07:07:34.322Z,30.93
2022-10-17T07:10:00.935Z,31.10
2022-10-17T07:12:27.431Z,34.50
2022-10-17T07:14:54.602Z,28.30
2022-10-17T07:17:21.033Z,39.40
2022-10-17T07:19:47.543Z,30.63
2022-10-17T07:22:14.268Z,28.30
2022-10-17T07:24:44.234Z,31.83
2022-10-17T07:27:33.662Z,30.33
2022-10-17T07:30:00.072Z,34.37
2022-10-17T07:32:38.410Z,29.20
2022-10-17T07:35:05.976Z,28.63
2022-10-17T07:37:33.613Z,29.90
2022-10-17T07:40:00.314Z,28.47
2022-10-17T07:42:28.344Z,29.43
2022-10-17T07:44:55.048Z,31.57
2022-10-17T07:47:22.661Z,29.27
2022-10-17T07:49:50.042Z,29.50
2022-10-17T07:52:17.062Z,27.80
2022-10-17T07:54:43.800Z,26.27
2022-10-17T07:57:10.323Z,25.93
2022-10-17T07:59:37.535Z,25.87
2022-10-17T08:02:04.056Z,26.03
2022-10-17T08:04:30.632Z,24.47
2022-10-17T08:07:11.573Z,22.00
2022-10-17T08:09:44.266Z,28.37
2022-10-17T08:12:10.867Z,21.93
2022-10-17T08:14:37.286Z,24.60
2022-10-17T08:17:03.717Z,21.50
2022-10-17T08:19:30.179Z,21.60
2022-10-17T08:21:58.382Z,25.53
2022-10-17T08:24:25.360Z,20.47
2022-10-17T08:26:53.409Z,22.60
2022-10-17T08:29:20.021Z,20.63
2022-10-17T08:31:48.304Z,20.33
2022-10-17T08:34:16.353Z,19.07
2022-10-17T08:36:42.940Z,22.57
2022-10-17T08:39:09.473Z,20.77
2022-10-17T08:41:47.863Z,19.40
2022-10-17T08:44:33.104Z,20.07
2022-10-17T08:47:01.649Z,18.77
2022-10-17T08:49:43.454Z,20.10
2022-10-17T08:52:32.947Z,22.77
2022-10-17T08:54:59.749Z,19.27
2022-10-17T08:57:26.463Z,19.27
2022-10-17T08:59:54.122Z,23.73
2022-10-17T09:02:35.240Z,20.10
2022-10-17T09:05:23.914Z,19.30
2022-10-17T09:08:10.647Z,17.50
2022-10-17T09:10:45.976Z,17.57
2022-10-17T09:13:25.379Z,17.80
2022-10-17T09:16:01.205Z,17.30
2022-10-17T09:18:29.682Z,17.07
2022-10-17T09:21:16.352Z,19.97
2022-10-17T09:23:53.317Z,16.50
2022-10-17T09:26:26.260Z,17.73
2022-10-17T09:28:54.162Z,16.20
2022-10-17T09:31:22.888Z,17.60
2022-10-17T09:33:54.366Z,17.13
2022-10-17T09:36:34.560Z,19.33
2022-10-17T09:39:02.486Z,17.47
2022-10-17T09:41:50.012Z,18.33
2022-10-17T09:44:19.395Z,17.77
2022-10-17T09:46:48.872Z,20.40
2022-10-17T09:49:19.707Z,18.80
2022-10-17T09:51:46.244Z,17.63
2022-10-17T09:54:20.626Z,18.70
2022-10-17T09:56:57.788Z,19.03
2022-10-17T09:59:56.754Z,21.07
2022-10-17T10:02:24.251Z,21.07
2022-10-17T10:05:09.794Z,17.60
2022-10-17T10:07:37.809Z,18.40
2022-10-17T10:10:05.351Z,17.13
2022-10-17T10:12:36.259Z,17.53
2022-10-17T10:15:05.154Z,16.80
2022-10-17T10:17:37.340Z,16.23
2022-10-17T10:20:23.753Z,15.50
2022-10-17T10:23:08.816Z,16.40
2022-10-17T10:25:35.598Z,15.53
2022-10-17T10:28:02.500Z,14.73
2022-10-17T10:30:29.738Z,16.13
2022-10-17T10:32:57.121Z,16.10
2022-10-17T10:35:27.978Z,15.43
2022-10-17T10:37:55.708Z,15.63
2022-10-17T10:40:22.169Z,15.13
2022-10-17T10:42:50.368Z,15.50
2022-10-17T10:45:29.202Z,14.17
2022-10-17T10:48:13.114Z,14.13
2022-10-17T10:50:45.401Z,13.97
2022-10-17T10:53:12.029Z,13.47
2022-10-17T10:55:50.695Z,13.40
2022-10-17T10:58:31.801Z,13.13
2022-10-17T11:01:00.922Z,13.97
2022-10-17T11:03:33.584Z,13.23
2022-10-17T11:06:06.175Z,13.57
2022-10-17T11:08:32.815Z,12.70
2022-10-17T11:11:08.216Z,13.23
2022-10-17T11:13:39.637Z,13.90
2022-10-17T11:16:06.469Z,13.87
2022-10-17T11:18:42.163Z,12.93
2022-10-17T11:21:28.873Z,14.23
2022-10-17T11:24:13.780Z,13.53
2022-10-17T11:26:45.141Z,13.00
2022-10-17T11:29:12.512Z,13.87
2022-10-17T11:31:43.191Z,13.43
2022-10-17T11:34:19.637Z,13.90
2022-10-17T11:36:46.997Z,13.47
2022-10-17T11:39:32.570Z,12.43
2022-10-17T11:42:14.335Z,12.43
2022-10-17T11:44:41.721Z,11.80
2022-10-17T11:47:14.245Z,10.77
2022-10-17T11:49:43.312Z,11.00
2022-10-17T11:52:44.427Z,11.33
2022-10-17T11:55:16.569Z,11.23
2022-10-17T11:57:48.902Z,11.03
2022-10-17T12:00:30.820Z,10.73
2022-10-17T12:02:57.415Z,10.70
2022-10-17T12:05:42.365Z,11.43
2022-10-17T12:08:25.196Z,11.10
2022-10-17T12:10:56.317Z,10.90
2022-10-17T12:13:43.030Z,9.83
2022-10-17T12:16:18.780Z,10.20
2022-10-17T12:18:45.915Z,10.53
2022-10-17T12:21:12.425Z,11.03
2022-10-17T12:23:40.010Z,10.77
2022-10-17T12:26:10.476Z,11.70
2022-10-17T12:28:40.016Z,9.53
2022-10-17T12:31:06.498Z,10.60
2022-10-17T12:33:34.631Z,10.60
2022-10-17T12:36:22.332Z,12.37
2022-10-17T12:38:49.874Z,9.30
2022-10-17T12:41:17.182Z,9.50
2022-10-17T12:43:45.004Z,10.80
2022-10-17T12:46:11.795Z,10.73
2022-10-17T12:48:38.343Z,10.80
2022-10-17T12:51:35.826Z,10.80
2022-10-17T12:54:12.592Z,10.80
2022-10-17T12:56:46.698Z,10.37
2022-10-17T12:59:24.205Z,10.10
2022-10-17T13:01:53.108Z,10.77
2022-10-17T13:04:20.029Z,12.20
2022-10-17T13:06:48.491Z,10.27
2022-10-17T13:09:26.012Z,10.63
2022-10-17T13:11:53.370Z,10.30
2022-10-17T13:14:21.047Z,12.77
2022-10-17T13:16:58.479Z,13.73
2022-10-17T13:19:39.332Z,10.40
2022-10-17T13:22:16.571Z,10.80
2022-10-17T13:24:43.238Z,12.03
2022-10-17T13:27:29.762Z,11.20
2022-10-17T13:29:57.655Z,11.47
2022-10-17T13:32:25.381Z,10.40
2022-10-17T13:35:08.677Z,10.70
2022-10-17T13:37:35.592Z,11.17
2022-10-17T13:40:11.317Z,12.40
2022-10-17T13:42:44.330Z,10.60
2022-10-17T13:45:31.257Z,9.90
2022-10-17T13:47:59.979Z,11.47
2022-10-17T13:50:44.581Z,17.90
2022-10-17T13:53:16.751Z,12.67
2022-10-17T13:56:15.799Z,12.63
2022-10-17T13:58:49.451Z,11.83
2022-10-17T14:01:16.374Z,11.07
2022-10-17T14:03:48.715Z,10.87
2022-10-17T14:06:16.345Z,14.93
2022-10-17T14:08:48.632Z,11.70
2022-10-17T14:11:18.668Z,11.17
2022-10-17T14:13:48.580Z,11.70
2022-10-17T14:16:15.106Z,14.33
2022-10-17T14:18:44.466Z,11.57
2022-10-17T14:24:14.625Z,12.40
2022-10-17T14:26:51.459Z,12.40
2022-10-17T14:29:22.788Z,12.87
2022-10-17T14:31:50.764Z,12.80
2022-10-17T14:34:21.287Z,12.97
2022-10-17T14:36:50.026Z,13.60
2022-10-17T14:39:20.887Z,14.07
2022-10-17T14:41:47.756Z,13.47
2022-10-17T14:44:20.343Z,13.70
2022-10-17T14:46:50.768Z,13.70
2022-10-17T14:49:24.248Z,15.87
2022-10-17T14:52:22.352Z,13.33
2022-10-17T14:54:49.578Z,13.33
2022-10-17T14:57:18.225Z,13.50
2022-10-17T14:59:59.924Z,17.83
2022-10-17T15:02:27.963Z,14.20
2022-10-17T15:04:54.816Z,14.50
2022-10-17T15:07:22.119Z,13.67
2022-10-17T15:09:49.507Z,14.43
2022-10-17T15:12:17.173Z,15.27
2022-10-17T15:14:43.795Z,14.27
2022-10-17T15:17:18.938Z,15.53
2022-10-17T15:19:45.346Z,17.93
2022-10-17T15:22:11.754Z,14.03
2022-10-17T15:24:38.363Z,13.13
2022-10-17T15:27:07.469Z,14.80
2022-10-17T15:29:33.976Z,14.13
2022-10-17T15:32:00.410Z,13.73
2022-10-17T15:34:26.857Z,15.50
2022-10-17T15:36:54.062Z,15.30
2022-10-17T15:39:20.894Z,14.47
2022-10-17T15:41:48.155Z,15.83
2022-10-17T15:44:15.140Z,15.97
2022-10-17T15:46:41.889Z,18.67
2022-10-17T15:49:11.417Z,16.73
2022-10-17T15:51:37.908Z,16.50
2022-10-17T15:54:05.725Z,16.67
2022-10-17T15:56:36.332Z,17.00
2022-10-17T15:59:03.911Z,16.67
2022-10-17T16:01:31.432Z,19.53
2022-10-17T16:03:57.878Z,15.70
2022-10-17T16:06:24.560Z,18.47
2022-10-17T16:08:51.176Z,16.37
2022-10-17T16:11:29.031Z,17.27
2022-10-17T16:13:57.104Z,19.93
2022-10-17T16:16:23.536Z,16.40
2022-10-17T16:18:49.947Z,16.17
2022-10-17T16:21:17.246Z,19.57
2022-10-17T16:23:43.926Z,20.73
2022-10-17T16:26:10.532Z,16.07
2022-10-17T16:28:37.204Z,23.00
2022-10-17T16:31:03.670Z,15.93
2022-10-17T16:33:31.381Z,21.83
2022-10-17T16:35:58.032Z,16.67
2022-10-17T16:38:24.438Z,26.47
2022-10-17T16:40:51.110Z,16.80
2022-10-17T16:43:17.550Z,16.43
2022-10-17T16:45:43.971Z,16.57
2022-10-17T16:48:10.681Z,17.97
2022-10-17T16:50:38.962Z,17.07
2022-10-17T16:53:05.367Z,15.83
2022-10-17T16:55:31.802Z,16.13
2022-10-17T16:57:59.902Z,15.80
2022-10-17T17:00:26.479Z,19.13
2022-10-17T17:02:52.946Z,19.53
2022-10-17T17:05:19.432Z,20.20
2022-10-17T17:07:47.737Z,16.00
2022-10-17T17:10:14.192Z,18.60
2022-10-17T17:12:40.624Z,16.20
2022-10-17T17:15:07.171Z,17.60
2022-10-17T17:17:49.742Z,18.47
2022-10-17T17:20:17.826Z,18.40
2022-10-17T17:22:44.283Z,19.40
2022-10-17T17:25:10.716Z,19.23
2022-10-17T17:27:37.144Z,20.23
2022-10-17T17:30:03.712Z,17.83
2022-10-17T17:32:32.049Z,18.47
2022-10-17T17:34:58.491Z,18.20
2022-10-17T17:37:25.019Z,18.40
2022-10-17T17:39:51.461Z,18.63
2022-10-17T17:42:18.826Z,22.17
2022-10-17T17:44:45.531Z,19.27
2022-10-17T17:47:11.924Z,19.53
2022-10-17T17:49:38.386Z,18.90
2022-10-17T17:52:04.837Z,17.50
2022-10-17T17:54:31.315Z,18.30
2022-10-17T17:56:57.737Z,19.30
2022-10-17T17:59:24.140Z,21.13
2022-10-17T18:01:50.931Z,20.77
2022-10-17T18:04:17.521Z,18.70
2022-10-17T18:06:44.031Z,19.07
2022-10-17T18:09:10.522Z,19.43
2022-10-17T18:11:37.395Z,22.00
2022-10-17T18:14:05.259Z,19.23
2022-10-17T18:16:32.786Z,20.17
2022-10-17T18:19:04.092Z,18.83
2022-10-17T18:21:33.091Z,20.30
2022-10-17T18:24:00.240Z,20.70
2022-10-17T18:26:28.471Z,20.73
2022-10-17T18:28:54.928Z,23.23
2022-10-17T18:31:25.131Z,20.37
2022-10-17T18:33:55.498Z,21.43
2022-10-17T18:36:22.665Z,20.67
2022-10-17T18:38:49.592Z,21.33
2022-10-17T18:41:17.190Z,20.67
2022-10-17T18:43:45.028Z,21.10
2022-10-17T18:46:19.184Z,21.20
2022-10-17T18:48:46.418Z,24.03
2022-10-17T18:51:14.403Z,20.27
2022-10-17T18:53:42.233Z,20.73
2022-10-17T18:56:09.245Z,20.37
2022-10-17T18:58:36.663Z,21.30
2022-10-17T19:01:04.080Z,23.00
2022-10-17T19:03:30.987Z,20.97
2022-10-17T19:06:01.152Z,29.87
2022-10-17T19:08:27.779Z,41.57
2022-10-17T19:10:54.168Z,34.57
2022-10-17T19:13:21.649Z,26.87
2022-10-17T19:15:48.416Z,25.33
2022-10-17T19:18:14.827Z,22.43
2022-10-17T19:20:41.568Z,23.33
2022-10-17T19:23:07.994Z,22.20
2022-10-17T19:25:34.468Z,23.90
2022-10-17T19:28:00.876Z,21.33
2022-10-17T19:30:27.289Z,22.97
2022-10-17T19:32:54.899Z,22.27
2022-10-17T19:35:21.431Z,26.60
2022-10-17T19:37:47.982Z,23.57
2022-10-17T19:40:14.581Z,22.27
2022-10-17T19:42:41.071Z,22.27
2022-10-17T19:45:08.333Z,24.67
2022-10-17T19:47:35.093Z,22.77
2022-10-17T19:50:01.576Z,20.77
2022-10-17T19:52:28.309Z,22.67
2022-10-17T19:54:55.052Z,24.47
2022-10-17T19:57:21.503Z,23.87
2022-10-17T19:59:49.385Z,23.90
2022-10-17T20:02:17.829Z,22.17
2022-10-17T20:04:54.441Z,32.03
2022-10-17T20:07:30.650Z,25.93
2022-10-17T20:09:57.099Z,26.90
2022-10-17T20:12:23.536Z,22.10
2022-10-17T20:14:49.962Z,25.67
2022-10-17T20:17:16.418Z,20.67
2022-10-17T20:19:42.907Z,22.60
2022-10-17T20:22:09.304Z,20.90
2022-10-17T20:24:35.763Z,23.80
2022-10-17T20:27:02.306Z,24.87
2022-10-17T20:29:28.849Z,24.13
2022-10-17T20:31:55.369Z,25.63
2022-10-17T20:34:21.863Z,27.27
2022-10-17T20:36:48.348Z,22.67
2022-10-17T20:39:15.604Z,25.63
2022-10-17T20:41:42.664Z,28.77
2022-10-17T20:44:09.806Z,102.67
2022-10-17T20:46:38.516Z,58.67
2022-10-17T20:49:13.061Z,53.10
2022-10-17T20:51:39.720Z,29.63
2022-10-17T20:54:06.129Z,35.43
2022-10-17T20:56:33.406Z,26.87
2022-10-17T20:59:00.939Z,68.10
2022-10-17T21:01:28.308Z,92.70
2022-10-17T21:03:55.131Z,83.07
2022-10-17T21:06:22.516Z,58.93
2022-10-17T21:08:49.378Z,67.07
2022-10-17T21:11:20.010Z,41.60
2022-10-17T21:13:47.208Z,30.23
2022-10-17T21:16:16.075Z,29.00
2022-10-17T21:18:42.683Z,30.67
2022-10-17T21:21:10.386Z,58.23
2022-10-17T21:23:37.107Z,40.57
2022-10-17T21:26:04.115Z,29.50
2022-10-17T21:28:31.185Z,28.87
2022-10-17T21:31:06.717Z,22.50
2022-10-17T21:33:33.241Z,25.03
2022-10-17T21:35:59.819Z,25.70
2022-10-17T21:38:26.344Z,26.47
2022-10-17T21:40:55.359Z,34.77
2022-10-17T21:43:22.835Z,26.90
2022-10-17T21:45:49.354Z,27.67
2022-10-17T21:48:15.915Z,25.57
2022-10-17T21:50:42.426Z,26.87
2022-10-17T21:53:08.964Z,27.77
2022-10-17T21:55:38.845Z,26.37
2022-10-17T21:58:05.310Z,24.63
2022-10-17T22:00:31.869Z,25.10
2022-10-17T22:02:58.376Z,21.53
2022-10-17T22:05:24.919Z,22.30
2022-10-17T22:07:51.372Z,23.10
2022-10-17T22:10:17.863Z,21.47
2022-10-17T22:12:44.419Z,21.67
2022-10-17T22:15:10.951Z,26.27
2022-10-17T22:17:37.541Z,25.17
2022-10-17T22:20:04.135Z,25.17
2022-10-17T22:22:30.600Z,22.47
2022-10-17T22:24:57.058Z,23.27
2022-10-17T22:27:23.474Z,27.10
2022-10-17T22:29:49.942Z,24.80
2022-10-17T22:32:20.062Z,25.80
2022-10-17T22:34:48.970Z,19.43
2022-10-17T22:37:15.462Z,20.37
2022-10-17T22:39:41.964Z,23.50
2022-10-17T22:42:08.831Z,18.67
2022-10-17T22:44:35.420Z,24.67
2022-10-17T22:47:02.323Z,27.33
2022-10-17T22:49:28.831Z,25.70
2022-10-17T22:51:55.687Z,24.53
2022-10-17T22:54:22.590Z,23.80
2022-10-17T22:56:49.013Z,25.43
2022-10-17T22:59:15.664Z,29.57
2022-10-17T23:01:42.130Z,27.10
2022-10-17T23:04:08.674Z,24.57
2022-10-17T23:06:35.530Z,21.47
2022-10-17T23:09:02.507Z,28.13
2022-10-17T23:11:28.973Z,20.27
2022-10-17T23:13:55.597Z,21.43
2022-10-17T23:16:22.066Z,21.90
2022-10-17T23:18:48.479Z,26.23
2022-10-17T23:21:15.130Z,21.90
2022-10-17T23:23:41.648Z,25.47
2022-10-17T23:26:10.332Z,22.53
2022-10-17T23:28:37.346Z,23.27
2022-10-17T23:31:14.921Z,25.10
2022-10-17T23:33:41.798Z,27.47
2022-10-17T23:36:09.562Z,24.07
2022-10-17T23:38:36.285Z,26.03
2022-10-17T23:41:02.741Z,21.10
2022-10-17T23:43:29.905Z,24.10
2022-10-17T23:45:56.332Z,24.17
2022-10-17T23:48:23.263Z,24.07
2022-10-17T23:50:49.718Z,21.80
2022-10-17T23:53:16.112Z,29.73
2022-10-17T23:55:42.841Z,25.13
2022-10-17T23:58:09.262Z,25.07
